Time;durP1;ratioP1;P1;durP2;ratioP2;P2;SDS_P1;SDS_P2;PMS_P1;PMS_P2;Temp;Humidity;BMP_temperature;BMP_pressure;BME280_temperature;BME280_humidity;BME280_pressure;Samples;Min_cycle;Max_cycle;Signal;HPM_P1;HPM_P2
2023/07/27 00:00:01;;;;;;;15.95;8.07;;;12.10;99.00;;;;;;5008812;28;20482;-69
2023/07/27 00:02:26;;;;;;;14.65;7.97;;;12.10;98.90;;;;;;5002558;28;20030;-70
2023/07/27 00:04:52;;;;;;;13.23;8.13;;;12.10;98.90;;;;;;5005823;28;20049;-70
2023/07/27 00:07:18;;;;;;;16.52;7.75;;;12.10;98.90;;;;;;5009063;28;20370;-69
2023/07/27 00:09:43;;;;;;;16.55;8.38;;;12.10;98.80;;;;;;5002744;28;20092;-69
2023/07/27 00:12:09;;;;;;;13.55;8.20;;;12.20;98.90;;;;;;5008995;28;20037;-69
2023/07/27 00:14:34;;;;;;;16.45;8.57;;;12.20;98.80;;;;;;5010354;28;20101;-70
2023/07/27 00:17:00;;;;;;;17.20;8.30;;;12.10;98.80;;;;;;5007167;28;20037;-69
2023/07/27 00:19:25;;;;;;;18.77;8.77;;;12.10;98.80;;;;;;5001037;28;20022;-70
2023/07/27 00:21:50;;;;;;;16.02;8.32;;;12.10;98.90;;;;;;5012134;28;20097;-70
2023/07/27 00:24:16;;;;;;;16.20;8.18;;;12.00;98.80;;;;;;5008511;28;20406;-69
2023/07/27 00:26:42;;;;;;;18.67;7.45;;;12.00;98.90;;;;;;5010184;28;20116;-69
2023/07/27 00:29:08;;;;;;;21.63;8.98;;;11.90;98.90;;;;;;5012714;28;20447;-69
2023/07/27 00:31:34;;;;;;;16.17;8.60;;;11.80;98.90;;;;;;5011570;28;20556;-69
2023/07/27 00:33:59;;;;;;;15.35;8.55;;;11.80;99.00;;;;;;5009812;28;20053;-69
2023/07/27 00:36:25;;;;;;;15.30;8.52;;;11.80;99.00;;;;;;5012064;28;20041;-69
2023/07/27 00:38:51;;;;;;;17.58;9.23;;;11.80;99.10;;;;;;5011491;28;20112;-70
2023/07/27 00:41:16;;;;;;;18.25;8.25;;;11.80;99.10;;;;;;5006078;28;20434;-69
2023/07/27 00:43:41;;;;;;;17.92;8.98;;;11.70;99.20;;;;;;5016239;28;20421;-69
2023/07/27 00:46:07;;;;;;;18.75;8.57;;;11.60;99.10;;;;;;5009880;28;20038;-70
2023/07/27 00:48:33;;;;;;;16.20;9.30;;;11.60;99.30;;;;;;5009533;28;20057;-69
2023/07/27 00:50:59;;;;;;;20.30;9.43;;;11.60;99.30;;;;;;5009986;28;20466;-69
2023/07/27 00:53:24;;;;;;;21.80;9.77;;;11.60;99.40;;;;;;5011325;28;20041;-70
2023/07/27 00:55:50;;;;;;;21.77;10.00;;;11.70;99.30;;;;;;5004531;28;20061;-69
2023/07/27 00:58:16;;;;;;;19.75;10.38;;;11.60;99.30;;;;;;5012643;28;20033;-69
2023/07/27 01:00:42;;;;;;;20.50;9.88;;;11.60;99.50;;;;;;5011583;28;20098;-69
2023/07/27 01:03:08;;;;;;;21.45;9.73;;;11.50;99.40;;;;;;5010921;28;20049;-69
2023/07/27 01:05:35;;;;;;;20.05;10.68;;;11.50;99.50;;;;;;5013145;28;20469;-69
2023/07/27 01:08:01;;;;;;;21.27;10.52;;;11.50;99.40;;;;;;5007794;28;20033;-69
2023/07/27 01:10:52;;;;;;;18.38;10.02;;;11.50;99.50;;;;;;5006256;28;20382;-69
2023/07/27 01:13:24;;;;;;;19.55;10.32;;;11.40;99.40;;;;;;5003542;28;20195;-69
2023/07/27 01:16:15;;;;;;;22.90;10.60;;;11.40;99.50;;;;;;5006807;28;20046;-69
2023/07/27 01:18:43;;;;;;;25.55;10.00;;;11.40;99.60;;;;;;5008658;28;20065;-70
2023/07/27 01:21:17;;;;;;;23.67;10.85;;;11.30;99.50;;;;;;5008646;28;20056;-69
2023/07/27 01:23:56;;;;;;;28.73;12.68;;;11.30;99.60;;;;;;5008779;28;20041;-70
2023/07/27 01:26:46;;;;;;;24.15;10.82;;;11.40;99.80;;;;;;4998610;28;20065;-69
2023/07/27 01:29:17;;;;;;;26.50;11.07;;;11.30;99.70;;;;;;5003685;28;20080;-69
2023/07/27 01:31:44;;;;;;;26.08;11.63;;;11.30;99.60;;;;;;5008565;28;20108;-68
2023/07/27 01:34:16;;;;;;;21.23;11.52;;;11.30;99.70;;;;;;5009303;28;20640;-69
2023/07/27 01:36:45;;;;;;;24.83;12.15;;;11.20;99.70;;;;;;5008658;28;20156;-69
2023/07/27 01:39:15;;;;;;;24.10;12.30;;;11.20;99.70;;;;;;5010780;28;20056;-69
2023/07/27 01:41:42;;;;;;;31.02;12.07;;;11.20;99.80;;;;;;4999958;28;20062;-70
2023/07/27 01:44:09;;;;;;;27.23;12.90;;;11.20;99.80;;;;;;5005459;28;20102;-69
2023/07/27 01:46:36;;;;;;;28.02;12.68;;;11.20;99.80;;;;;;5007976;28;20391;-69
2023/07/27 01:49:03;;;;;;;28.13;12.88;;;11.20;99.80;;;;;;5005743;28;20056;-69
2023/07/27 01:51:29;;;;;;;30.75;13.43;;;11.20;99.80;;;;;;5012021;28;20478;-69
2023/07/27 01:53:55;;;;;;;27.95;13.60;;;11.10;99.80;;;;;;5007169;28;20033;-69
2023/07/27 01:56:23;;;;;;;32.30;13.23;;;11.20;99.90;;;;;;5004621;28;20025;-69
2023/07/27 01:58:51;;;;;;;29.73;13.35;;;11.20;99.90;;;;;;5006886;28;20026;-69
2023/07/27 02:01:17;;;;;;;30.75;13.57;;;11.20;99.90;;;;;;5010273;28;20026;-69
2023/07/27 02:03:43;;;;;;;27.52;13.23;;;11.10;99.80;;;;;;5012641;28;20045;-69
2023/07/27 02:06:08;;;;;;;31.30;14.57;;;11.10;99.80;;;;;;5007791;28;20361;-69
2023/07/27 02:08:34;;;;;;;35.85;14.35;;;11.10;99.90;;;;;;5006112;28;20083;-69
2023/07/27 02:11:03;;;;;;;30.45;14.60;;;11.10;99.80;;;;;;5005398;28;20043;-70
2023/07/27 02:13:53;;;;;;;31.88;14.13;;;11.10;99.90;;;;;;5010105;28;20018;-69
2023/07/27 02:16:51;;;;;;;31.38;14.23;;;11.10;99.90;;;;;;5005154;28;20087;-69
2023/07/27 02:19:23;;;;;;;29.10;13.00;;;11.10;99.90;;;;;;4968242;28;20041;-69
2023/07/27 02:21:49;;;;;;;33.22;14.82;;;11.10;99.90;;;;;;5011618;28;20156;-69
2023/07/27 02:24:15;;;;;;;31.75;14.32;;;11.10;99.80;;;;;;5005567;28;20029;-69
2023/07/27 02:26:42;;;;;;;36.75;15.55;;;11.00;99.90;;;;;;5007251;28;20095;-69
2023/07/27 02:29:08;;;;;;;29.80;14.07;;;11.00;99.90;;;;;;5008733;28;20025;-70
2023/07/27 02:31:33;;;;;;;37.45;15.73;;;11.00;99.90;;;;;;5009381;28;20619;-69
2023/07/27 02:33:59;;;;;;;32.22;15.82;;;11.00;99.90;;;;;;5008021;28;20064;-69
2023/07/27 02:36:24;;;;;;;31.60;16.35;;;11.00;99.90;;;;;;5008223;28;20378;-69
2023/07/27 02:38:49;;;;;;;34.88;16.25;;;11.00;99.90;;;;;;5007686;28;20032;-71
2023/07/27 02:41:15;;;;;;;38.78;16.95;;;10.90;99.90;;;;;;5008315;28;20041;-69
2023/07/27 02:43:40;;;;;;;38.47;15.48;;;10.90;99.90;;;;;;5009434;28;20650;-70
2023/07/27 02:46:08;;;;;;;33.22;16.55;;;10.90;99.90;;;;;;5006869;28;20084;-69
2023/07/27 02:48:33;;;;;;;38.35;16.58;;;11.00;99.90;;;;;;5007849;28;20378;-69
2023/07/27 02:50:59;;;;;;;36.92;17.15;;;11.00;99.90;;;;;;5007124;28;20030;-69
2023/07/27 02:53:24;;;;;;;40.47;16.85;;;11.00;99.90;;;;;;5008499;28;20029;-69
2023/07/27 02:56:01;;;;;;;42.90;17.70;;;11.00;99.90;;;;;;5006257;28;20030;-69
2023/07/27 02:58:27;;;;;;;44.60;19.13;;;11.00;99.90;;;;;;5009193;28;20030;-69
2023/07/27 03:00:55;;;;;;;41.03;18.35;;;11.10;99.90;;;;;;5008119;28;20029;-69
2023/07/27 03:03:21;;;;;;;50.00;20.52;;;11.10;99.90;;;;;;5008698;28;20449;-70
2023/07/27 03:05:47;;;;;;;45.90;20.92;;;11.20;99.90;;;;;;5010018;28;20033;-69
2023/07/27 03:08:12;;;;;;;47.80;21.40;;;11.30;99.90;;;;;;5008150;28;20037;-69
2023/07/27 03:10:39;;;;;;;52.58;21.30;;;11.40;99.90;;;;;;5005244;28;20362;-69
2023/07/27 03:13:05;;;;;;;52.50;21.17;;;11.40;99.90;;;;;;5006630;28;20025;-69
2023/07/27 03:15:30;;;;;;;54.35;23.38;;;11.50;99.90;;;;;;5004634;28;20065;-69
2023/07/27 03:17:56;;;;;;;47.13;21.63;;;11.60;99.90;;;;;;5012896;28;20057;-69
2023/07/27 03:20:21;;;;;;;57.70;23.73;;;11.60;99.90;;;;;;5007890;28;20041;-71
2023/07/27 03:22:48;;;;;;;58.28;23.40;;;11.60;99.90;;;;;;5017038;28;20045;-69
2023/07/27 03:25:13;;;;;;;52.75;23.83;;;11.70;99.90;;;;;;5004582;28;20034;-69
2023/07/27 03:27:39;;;;;;;55.88;24.38;;;11.80;99.90;;;;;;5008587;28;20076;-69
2023/07/27 03:30:04;;;;;;;60.55;24.35;;;11.80;99.90;;;;;;5007874;28;20057;-70
2023/07/27 03:32:30;;;;;;;55.30;24.55;;;11.80;99.90;;;;;;5004376;28;20529;-69
2023/07/27 03:34:55;;;;;;;56.15;25.08;;;11.80;99.80;;;;;;5008194;28;20061;-69
2023/07/27 03:37:21;;;;;;;61.42;24.80;;;11.90;99.80;;;;;;5009573;28;20426;-69
2023/07/27 03:39:46;;;;;;;57.88;24.92;;;11.90;99.70;;;;;;5009535;28;20037;-69
2023/07/27 03:42:12;;;;;;;60.15;26.27;;;12.00;99.60;;;;;;5004894;28;20470;-69
2023/07/27 03:44:38;;;;;;;64.72;26.05;;;12.00;99.60;;;;;;5003234;28;20029;-69
2023/07/27 03:47:04;;;;;;;56.92;25.27;;;12.00;99.60;;;;;;5007060;28;20402;-69
2023/07/27 03:49:29;;;;;;;61.72;25.10;;;12.00;99.50;;;;;;5007731;28;20030;-69
2023/07/27 03:51:55;;;;;;;57.88;24.77;;;12.00;99.40;;;;;;5009918;28;20367;-69
2023/07/27 03:54:20;;;;;;;61.50;26.25;;;12.00;99.40;;;;;;5004921;28;20537;-69
2023/07/27 03:56:46;;;;;;;60.08;26.00;;;12.10;99.30;;;;;;5010022;28;20069;-69
2023/07/27 03:59:11;;;;;;;51.40;25.58;;;12.00;99.30;;;;;;5011082;28;20474;-69
2023/07/27 04:01:37;;;;;;;50.85;24.65;;;12.00;99.30;;;;;;5010395;28;20103;-69
2023/07/27 04:04:02;;;;;;;53.30;24.27;;;12.00;99.20;;;;;;5013200;28;20470;-69
2023/07/27 04:06:28;;;;;;;56.00;25.67;;;12.00;99.20;;;;;;5013007;28;20092;-69
2023/07/27 04:08:53;;;;;;;57.70;25.10;;;12.00;99.20;;;;;;5003146;28;20095;-70
2023/07/27 04:11:19;;;;;;;58.08;24.88;;;12.10;99.20;;;;;;5009285;28;20466;-69
2023/07/27 04:13:44;;;;;;;53.58;24.08;;;12.10;99.10;;;;;;5011512;28;20113;-70
2023/07/27 04:16:10;;;;;;;54.33;24.92;;;12.10;99.10;;;;;;5012169;28;20108;-70
2023/07/27 04:18:35;;;;;;;47.72;24.08;;;12.20;99.10;;;;;;5011645;28;20113;-69
2023/07/27 04:21:00;;;;;;;45.88;23.85;;;12.30;99.00;;;;;;5007953;28;20022;-69
2023/07/27 04:23:26;;;;;;;46.65;22.98;;;12.30;98.90;;;;;;5008612;28;20026;-69
2023/07/27 04:25:51;;;;;;;44.47;20.95;;;12.30;98.80;;;;;;5006893;28;20095;-69
2023/07/27 04:28:17;;;;;;;43.72;20.95;;;12.30;98.80;;;;;;5011858;28;20041;-68
2023/07/27 04:30:44;;;;;;;37.75;19.55;;;12.40;98.60;;;;;;5006460;28;20437;-68
2023/07/27 04:33:09;;;;;;;37.10;19.98;;;12.40;98.60;;;;;;5009358;28;20137;-68
2023/07/27 04:35:35;;;;;;;41.60;18.45;;;12.40;98.40;;;;;;5007884;28;20093;-67
2023/07/27 04:38:00;;;;;;;36.97;18.25;;;12.40;98.30;;;;;;5008833;28;20109;-68
2023/07/27 04:40:26;;;;;;;31.45;16.67;;;12.40;98.30;;;;;;5010334;28;20053;-68
2023/07/27 04:42:51;;;;;;;29.85;16.95;;;12.40;98.20;;;;;;5006718;28;20137;-69
2023/07/27 04:45:17;;;;;;;27.55;16.42;;;12.40;98.20;;;;;;5008370;28;20469;-68
2023/07/27 04:47:42;;;;;;;26.35;15.75;;;12.50;98.20;;;;;;5007268;28;20629;-68
2023/07/27 04:50:08;;;;;;;33.20;16.38;;;12.50;98.10;;;;;;5009004;28;20038;-68
2023/07/27 04:52:33;;;;;;;29.00;15.13;;;12.50;97.90;;;;;;5012511;28;20486;-68
2023/07/27 04:54:59;;;;;;;24.15;14.77;;;12.50;97.90;;;;;;5008105;28;20045;-68
2023/07/27 04:57:24;;;;;;;24.40;14.18;;;12.50;97.80;;;;;;5011111;28;20042;-68
2023/07/27 04:59:50;;;;;;;23.58;13.48;;;12.50;97.80;;;;;;5010815;28;20121;-69
2023/07/27 05:02:15;;;;;;;22.75;13.32;;;12.60;97.90;;;;;;5009888;28;20401;-68
2023/07/27 05:04:41;;;;;;;23.27;12.90;;;12.60;97.70;;;;;;5010599;28;20054;-69
2023/07/27 05:07:06;;;;;;;19.48;11.70;;;12.60;97.80;;;;;;5005866;28;20435;-68
2023/07/27 05:09:32;;;;;;;19.48;11.75;;;12.60;97.80;;;;;;5008218;28;20042;-68
2023/07/27 05:11:57;;;;;;;20.45;11.40;;;12.60;97.80;;;;;;5003097;28;20029;-69
2023/07/27 05:14:23;;;;;;;19.10;11.02;;;12.70;97.60;;;;;;5003604;28;20034;-68
2023/07/27 05:16:48;;;;;;;18.23;10.38;;;12.80;97.60;;;;;;5009714;28;20033;-68
2023/07/27 05:19:13;;;;;;;17.15;10.73;;;12.80;97.70;;;;;;5005212;28;20061;-68
2023/07/27 05:21:39;;;;;;;16.88;10.50;;;12.80;97.50;;;;;;5005541;28;20347;-69
2023/07/27 05:24:05;;;;;;;15.13;9.73;;;12.90;97.60;;;;;;5006842;28;20292;-68
2023/07/27 05:26:30;;;;;;;17.38;9.70;;;12.90;97.60;;;;;;5004087;28;20041;-69
2023/07/27 05:28:58;;;;;;;18.15;9.90;;;13.00;97.50;;;;;;5007021;28;20034;-68
2023/07/27 05:31:23;;;;;;;14.73;9.00;;;13.00;97.40;;;;;;5012192;28;20462;-68
2023/07/27 05:33:49;;;;;;;15.73;8.90;;;13.10;97.20;;;;;;5010824;28;20034;-68
2023/07/27 05:36:15;;;;;;;13.43;8.50;;;13.10;97.10;;;;;;5004166;28;20478;-69
2023/07/27 05:38:41;;;;;;;15.55;7.80;;;13.10;97.00;;;;;;5009272;28;20088;-67
2023/07/27 05:41:07;;;;;;;11.93;8.23;;;13.10;97.00;;;;;;5004117;28;20033;-68
2023/07/27 05:43:32;;;;;;;10.68;7.35;;;13.10;96.90;;;;;;5008760;28;20676;-68
2023/07/27 05:45:58;;;;;;;14.02;7.13;;;13.10;96.60;;;;;;5012399;28;20084;-68
2023/07/27 05:48:23;;;;;;;13.13;7.03;;;13.10;96.40;;;;;;5009057;28;20100;-68
2023/07/27 05:50:51;;;;;;;16.92;7.45;;;13.10;96.50;;;;;;5010325;28;20022;-68
2023/07/27 05:53:17;;;;;;;12.18;7.05;;;13.10;96.70;;;;;;5012816;28;20026;-68
2023/07/27 05:55:42;;;;;;;14.50;6.70;;;13.10;96.50;;;;;;5006367;28;20044;-68
2023/07/27 05:58:08;;;;;;;9.52;6.88;;;13.20;96.30;;;;;;5008625;28;20044;-68
2023/07/27 06:00:35;;;;;;;12.57;7.22;;;13.20;96.10;;;;;;5011864;28;20054;-68
2023/07/27 06:03:01;;;;;;;10.00;5.97;;;13.30;96.20;;;;;;5012215;28;20572;-68
2023/07/27 06:05:26;;;;;;;12.25;6.63;;;13.30;95.70;;;;;;5006002;28;20505;-70
2023/07/27 06:07:52;;;;;;;10.48;6.10;;;13.40;95.80;;;;;;5007293;28;20389;-69
2023/07/27 06:10:17;;;;;;;12.32;6.43;;;13.40;95.30;;;;;;5004570;28;20052;-68
2023/07/27 06:12:43;;;;;;;9.82;6.20;;;13.40;95.30;;;;;;5011069;28;20480;-68
2023/07/27 06:15:09;;;;;;;9.57;6.25;;;13.50;95.30;;;;;;5008492;28;20029;-69
2023/07/27 06:17:35;;;;;;;10.52;6.40;;;13.50;95.40;;;;;;5004691;28;20038;-68
2023/07/27 06:20:00;;;;;;;8.60;6.00;;;13.60;95.30;;;;;;5003874;28;20171;-70
2023/07/27 06:22:26;;;;;;;10.60;5.75;;;13.60;94.80;;;;;;5006218;28;20025;-66
2023/07/27 06:24:51;;;;;;;9.38;6.28;;;13.70;95.10;;;;;;5003384;28;20034;-70
2023/07/27 06:27:17;;;;;;;8.65;5.75;;;13.80;95.10;;;;;;5005878;28;20482;-67
2023/07/27 06:29:42;;;;;;;9.10;6.15;;;13.80;94.80;;;;;;5006558;28;20029;-67
2023/07/27 06:32:08;;;;;;;9.60;5.43;;;13.90;95.10;;;;;;5017654;28;20451;-67
2023/07/27 06:34:33;;;;;;;9.93;5.55;;;14.00;94.60;;;;;;5009484;28;20034;-67
2023/07/27 06:36:59;;;;;;;10.48;5.82;;;14.00;94.40;;;;;;5003404;28;20041;-67
2023/07/27 06:39:25;;;;;;;11.82;5.78;;;14.00;94.50;;;;;;5006609;28;20093;-67
2023/07/27 06:41:51;;;;;;;10.32;5.57;;;14.00;94.20;;;;;;5008631;28;20037;-67
2023/07/27 06:44:16;;;;;;;10.27;5.65;;;14.00;94.40;;;;;;4999211;28;20116;-66
2023/07/27 06:46:42;;;;;;;9.30;5.38;;;13.90;94.00;;;;;;5008262;28;20054;-67
2023/07/27 06:49:10;;;;;;;10.02;6.00;;;14.00;94.40;;;;;;5008251;28;20030;-67
2023/07/27 06:51:35;;;;;;;9.55;5.07;;;13.90;94.10;;;;;;5008166;28;20417;-66
2023/07/27 06:54:01;;;;;;;11.55;6.38;;;13.90;94.30;;;;;;5004547;28;20062;-67
2023/07/27 06:56:26;;;;;;;7.90;5.50;;;13.90;94.30;;;;;;5008349;28;20079;-67
2023/07/27 06:58:52;;;;;;;7.65;5.30;;;13.90;94.20;;;;;;5010423;28;20066;-68
2023/07/27 07:01:17;;;;;;;8.48;5.72;;;13.80;94.40;;;;;;5004596;28;20088;-66
2023/07/27 07:03:43;;;;;;;11.95;6.15;;;13.90;94.90;;;;;;5016375;28;20080;-67
2023/07/27 07:06:09;;;;;;;12.40;7.30;;;13.80;95.20;;;;;;5007332;28;20045;-67
2023/07/27 07:08:35;;;;;;;8.27;6.10;;;13.80;95.40;;;;;;5004882;28;20453;-66
2023/07/27 07:11:00;;;;;;;11.70;6.47;;;13.90;95.70;;;;;;5002923;28;20101;-67
2023/07/27 07:13:26;;;;;;;14.20;7.13;;;13.80;95.60;;;;;;5006785;28;20028;-66
2023/07/27 07:15:51;;;;;;;13.48;7.13;;;13.80;95.90;;;;;;5005796;28;20501;-68
2023/07/27 07:18:17;;;;;;;11.18;6.60;;;13.80;95.80;;;;;;5006147;28;20102;-67
2023/07/27 07:20:42;;;;;;;10.45;7.15;;;13.80;96.10;;;;;;5012056;28;20049;-67
2023/07/27 07:23:08;;;;;;;14.85;6.85;;;13.80;96.00;;;;;;5005842;28;20414;-66
2023/07/27 07:25:33;;;;;;;10.18;6.93;;;13.90;96.30;;;;;;5001143;28;20480;-66
2023/07/27 07:27:59;;;;;;;11.32;7.07;;;14.00;96.30;;;;;;5005124;28;20559;-66
2023/07/27 07:30:24;;;;;;;11.82;7.65;;;14.10;96.30;;;;;;5007319;28;20038;-67
2023/07/27 07:32:50;;;;;;;10.80;7.72;;;14.10;96.00;;;;;;5014682;28;20029;-66
2023/07/27 07:35:16;;;;;;;10.50;7.50;;;14.30;96.30;;;;;;5007495;28;20028;-66
2023/07/27 07:37:41;;;;;;;14.20;8.07;;;14.40;96.30;;;;;;5006621;28;20030;-67
2023/07/27 07:40:07;;;;;;;11.93;7.80;;;14.60;96.50;;;;;;5013146;28;20030;-66
2023/07/27 07:42:33;;;;;;;10.98;7.30;;;14.50;95.80;;;;;;5009043;28;20029;-66
2023/07/27 07:44:58;;;;;;;12.88;7.30;;;14.50;95.90;;;;;;5007192;28;20026;-66
2023/07/27 07:47:24;;;;;;;11.30;7.53;;;14.50;95.50;;;;;;5006597;28;22200;-67
2023/07/27 07:49:49;;;;;;;9.18;6.75;;;14.60;95.90;;;;;;5013681;28;20052;-70
2023/07/27 07:52:15;;;;;;;13.10;7.28;;;14.50;95.50;;;;;;5009124;28;20021;-67
2023/07/27 07:54:40;;;;;;;10.85;6.78;;;14.70;96.00;;;;;;5006091;28;20686;-68
2023/07/27 07:57:06;;;;;;;12.55;6.72;;;14.50;95.30;;;;;;5004894;28;20026;-66
2023/07/27 07:59:31;;;;;;;11.13;7.20;;;14.50;95.50;;;;;;5010379;28;20493;-66
2023/07/27 08:01:57;;;;;;;11.45;7.00;;;14.70;95.90;;;;;;5010051;28;20041;-68
2023/07/27 08:04:22;;;;;;;11.80;7.25;;;14.70;95.60;;;;;;5014449;28;20048;-67
2023/07/27 08:06:48;;;;;;;10.88;6.78;;;14.70;95.20;;;;;;5009471;28;20343;-66
2023/07/27 08:09:14;;;;;;;9.85;6.18;;;14.90;95.70;;;;;;5001891;28;20069;-67
2023/07/27 08:11:41;;;;;;;10.70;6.05;;;14.70;95.20;;;;;;5008206;28;20037;-67
2023/07/27 08:14:10;;;;;;;13.18;7.20;;;14.80;95.40;;;;;;5009635;28;20485;-67
2023/07/27 08:16:36;;;;;;;9.60;6.50;;;14.90;95.60;;;;;;5009016;28;20080;-71
2023/07/27 08:19:01;;;;;;;11.07;6.70;;;14.80;95.20;;;;;;5005875;28;20474;-67
2023/07/27 08:21:28;;;;;;;11.90;7.22;;;14.70;95.40;;;;;;5003558;28;20034;-67
2023/07/27 08:23:54;;;;;;;12.00;7.28;;;14.70;95.40;;;;;;5006725;28;20034;-68
2023/07/27 08:26:19;;;;;;;10.70;6.97;;;14.80;95.70;;;;;;5003096;28;20363;-66
2023/07/27 08:28:48;;;;;;;12.63;7.75;;;14.90;96.00;;;;;;5005172;28;20149;-67
2023/07/27 08:31:14;;;;;;;11.82;7.43;;;14.90;95.80;;;;;;5004096;28;20132;-68
2023/07/27 08:33:39;;;;;;;10.13;6.28;;;14.70;95.50;;;;;;5004209;28;20033;-67
2023/07/27 08:36:05;;;;;;;12.45;7.32;;;14.70;95.80;;;;;;5004714;28;20092;-67
2023/07/27 08:38:31;;;;;;;11.13;7.32;;;14.60;96.00;;;;;;5012397;28;20038;-68
2023/07/27 08:41:00;;;;;;;14.27;7.43;;;14.60;96.00;;;;;;5005716;28;20026;-66
2023/07/27 08:43:27;;;;;;;12.15;8.00;;;14.60;96.40;;;;;;5007382;28;20046;-66
2023/07/27 08:45:53;;;;;;;14.18;7.38;;;14.60;96.40;;;;;;5010647;28;20030;-67
2023/07/27 08:48:19;;;;;;;13.27;7.38;;;14.60;96.50;;;;;;5012676;28;20041;-66
2023/07/27 08:50:47;;;;;;;12.00;7.80;;;14.60;96.50;;;;;;5012902;28;20022;-66
2023/07/27 08:53:13;;;;;;;13.57;7.85;;;14.70;96.60;;;;;;5007856;28;20033;-66
2023/07/27 08:55:39;;;;;;;13.57;8.10;;;14.70;96.60;;;;;;4998180;28;20042;-69
2023/07/27 08:58:06;;;;;;;12.52;8.18;;;14.80;96.70;;;;;;4999441;28;20092;-68
2023/07/27 09:00:32;;;;;;;11.80;7.63;;;14.90;96.70;;;;;;5015843;28;20029;-67
2023/07/27 09:02:58;;;;;;;14.25;8.32;;;14.90;96.70;;;;;;5010444;28;20367;-67
2023/07/27 09:05:37;;;;;;;13.35;8.15;;;14.90;96.70;;;;;;5003881;28;20033;-67
2023/07/27 09:08:10;;;;;;;11.15;8.00;;;14.80;96.00;;;;;;4996807;28;20045;-69
2023/07/27 09:10:38;;;;;;;11.10;7.95;;;15.00;96.60;;;;;;4999796;28;20540;-68
2023/07/27 09:13:04;;;;;;;13.48;7.93;;;15.00;96.20;;;;;;5001848;28;20030;-68
2023/07/27 09:15:30;;;;;;;14.30;8.20;;;15.00;96.30;;;;;;5003081;28;20022;-68
2023/07/27 09:17:58;;;;;;;11.93;7.57;;;15.00;96.30;;;;;;5005934;28;20469;-67
2023/07/27 09:20:24;;;;;;;10.27;7.45;;;15.10;96.50;;;;;;4999141;28;20072;-68
2023/07/27 09:22:50;;;;;;;11.02;8.35;;;15.20;96.50;;;;;;5005944;28;20437;-68
2023/07/27 09:25:21;;;;;;;12.43;8.38;;;15.30;96.10;;;;;;4998847;28;20117;-68
2023/07/27 09:27:47;;;;;;;12.57;7.22;;;15.30;96.00;;;;;;5008323;28;20109;-76
2023/07/27 09:30:16;;;;;;;12.95;7.63;;;15.30;95.50;;;;;;5009521;28;20101;-68
2023/07/27 09:32:41;;;;;;;13.27;7.97;;;15.50;96.40;;;;;;5004464;28;20103;-67
2023/07/27 09:35:13;;;;;;;10.98;8.02;;;15.60;95.80;;;;;;5008809;28;20458;-68
2023/07/27 09:37:45;;;;;;;11.55;8.10;;;15.80;95.80;;;;;;5009056;28;20428;-68
2023/07/27 09:40:13;;;;;;;11.30;8.18;;;15.90;95.50;;;;;;5001172;28;20435;-68
2023/07/27 09:42:41;;;;;;;12.60;6.97;;;16.00;95.10;;;;;;5005248;28;20054;-69
2023/07/27 09:45:07;;;;;;;9.95;6.70;;;16.00;94.20;;;;;;5001765;28;20097;-67
2023/07/27 09:47:32;;;;;;;9.57;7.05;;;16.00;94.50;;;;;;5001862;28;20125;-68
2023/07/27 09:50:01;;;;;;;11.05;7.45;;;16.10;95.00;;;;;;5009846;28;20398;-67
2023/07/27 09:52:28;;;;;;;10.88;7.10;;;16.20;93.60;;;;;;5009884;28;20036;-68
2023/07/27 09:55:00;;;;;;;12.52;6.32;;;16.30;94.30;;;;;;5005725;28;20034;-71
2023/07/27 09:57:26;;;;;;;13.38;6.85;;;16.50;93.80;;;;;;5007966;28;20502;-68
2023/07/27 09:59:52;;;;;;;10.30;6.85;;;16.60;93.60;;;;;;5003431;28;20027;-71
2023/07/27 10:02:19;;;;;;;9.57;6.50;;;16.60;93.60;;;;;;5002593;28;20112;-68
2023/07/27 10:04:47;;;;;;;8.95;6.07;;;16.60;93.00;;;;;;5013103;28;20049;-68
2023/07/27 10:07:13;;;;;;;12.65;6.63;;;16.40;92.20;;;;;;5008189;28;20022;-67
2023/07/27 10:09:39;;;;;;;11.30;6.72;;;16.50;93.20;;;;;;5011729;28;20042;-67
2023/07/27 10:12:04;;;;;;;8.77;6.55;;;16.70;93.50;;;;;;5009617;28;20030;-69
2023/07/27 10:14:31;;;;;;;10.80;6.47;;;16.70;92.90;;;;;;5010295;28;20034;-68
2023/07/27 10:17:08;;;;;;;9.95;6.40;;;16.60;92.80;;;;;;5007240;28;20452;-68
2023/07/27 10:19:45;;;;;;;9.05;6.38;;;16.60;92.40;;;;;;5007898;28;20022;-67
2023/07/27 10:22:15;;;;;;;10.90;6.18;;;17.00;93.50;;;;;;5011229;28;20018;-68
2023/07/27 10:24:49;;;;;;;11.10;6.93;;;17.00;92.30;;;;;;5004493;28;20070;-68
2023/07/27 10:27:17;;;;;;;9.45;6.18;;;17.00;92.00;;;;;;5013900;28;20122;-68
2023/07/27 10:29:47;;;;;;;12.38;6.32;;;17.30;92.50;;;;;;5007963;28;20110;-68
2023/07/27 10:32:14;;;;;;;10.25;5.57;;;17.50;92.20;;;;;;5007088;28;20026;-68
2023/07/27 10:34:40;;;;;;;8.82;5.55;;;17.40;91.00;;;;;;5012581;28;20030;-68
2023/07/27 10:37:08;;;;;;;10.75;5.60;;;17.50;92.10;;;;;;5010307;28;20029;-68
2023/07/27 10:39:34;;;;;;;7.82;5.30;;;17.60;91.50;;;;;;5011000;28;20038;-69
2023/07/27 10:42:05;;;;;;;8.43;5.20;;;18.00;91.60;;;;;;5007206;28;20080;-68
2023/07/27 10:44:47;;;;;;;8.02;5.55;;;18.00;90.80;;;;;;5008743;28;20037;-69
2023/07/27 10:47:15;;;;;;;7.07;4.65;;;18.00;90.10;;;;;;5003935;28;20379;-68
2023/07/27 10:49:46;;;;;;;7.88;4.28;;;18.00;89.50;;;;;;5014993;28;20022;-68
2023/07/27 10:52:20;;;;;;;9.93;4.88;;;18.10;89.70;;;;;;5008835;28;20088;-68
2023/07/27 10:54:47;;;;;;;9.02;4.53;;;18.10;90.40;;;;;;5008220;28;20040;-68
2023/07/27 10:57:16;;;;;;;7.93;4.43;;;18.10;88.70;;;;;;5012680;28;20033;-67
2023/07/27 10:59:50;;;;;;;9.73;4.60;;;18.10;89.50;;;;;;5007736;28;20101;-68
2023/07/27 11:02:20;;;;;;;8.48;4.45;;;18.50;89.40;;;;;;5013442;28;20064;-68
2023/07/27 11:04:48;;;;;;;7.13;4.30;;;18.40;87.40;;;;;;5013968;28;20084;-68
2023/07/27 11:07:34;;;;;;;8.40;4.60;;;18.60;88.00;;;;;;5011422;28;20112;-68
2023/07/27 11:10:06;;;;;;;5.68;3.92;;;18.70;87.90;;;;;;5007909;28;20041;-67
2023/07/27 11:12:32;;;;;;;6.07;3.30;;;18.60;87.40;;;;;;5008502;28;20033;-67
2023/07/27 11:15:24;;;;;;;8.07;4.03;;;18.70;87.90;;;;;;5008491;28;20026;-68
2023/07/27 11:17:51;;;;;;;6.95;4.07;;;18.30;87.20;;;;;;5007550;28;20040;-68
2023/07/27 11:20:28;;;;;;;8.63;3.67;;;18.40;87.60;;;;;;5002912;28;20105;-68
2023/07/27 11:22:55;;;;;;;8.32;3.88;;;18.10;87.00;;;;;;5006777;28;20033;-68
2023/07/27 11:25:22;;;;;;;5.90;3.85;;;18.30;88.30;;;;;;5006037;28;20038;-67
2023/07/27 11:27:49;;;;;;;7.63;4.05;;;18.10;87.40;;;;;;5010320;28;20114;-67
2023/07/27 11:30:17;;;;;;;8.05;3.90;;;18.20;87.30;;;;;;5008234;28;20036;-67
2023/07/27 11:32:53;;;;;;;6.30;3.90;;;18.20;88.00;;;;;;5007776;28;20030;-68
2023/07/27 11:35:19;;;;;;;7.13;3.85;;;18.10;87.90;;;;;;5011675;28;20025;-67
2023/07/27 11:37:44;;;;;;;7.57;3.55;;;18.00;89.00;;;;;;5008402;28;20042;-71
2023/07/27 11:40:18;;;;;;;5.40;3.25;;;18.00;88.90;;;;;;5015567;28;20092;-68
2023/07/27 11:42:44;;;;;;;8.45;3.80;;;17.80;89.30;;;;;;5006205;28;20031;-67
2023/07/27 11:45:10;;;;;;;10.35;4.20;;;17.80;90.50;;;;;;4999421;28;20034;-67
2023/07/27 11:47:40;;;;;;;7.45;3.30;;;17.70;89.70;;;;;;5005781;28;20041;-69
2023/07/27 11:50:09;;;;;;;7.47;3.53;;;17.60;89.80;;;;;;5008487;28;20021;-67
2023/07/27 11:52:41;;;;;;;5.90;3.55;;;17.30;90.60;;;;;;5010461;28;20065;-67
2023/07/27 11:55:08;;;;;;;6.97;3.20;;;16.90;91.70;;;;;;5003806;28;20101;-67
2023/07/27 11:57:33;;;;;;;5.97;2.95;;;16.40;92.90;;;;;;5008794;28;20030;-67
2023/07/27 12:00:14;;;;;;;5.50;2.80;;;16.20;94.00;;;;;;5010605;28;20022;-68
2023/07/27 12:02:41;;;;;;;6.93;2.70;;;16.00;94.90;;;;;;5003230;28;20040;-69
2023/07/27 12:05:11;;;;;;;6.05;3.30;;;16.00;95.60;;;;;;5008994;28;20037;-67
2023/07/27 12:07:38;;;;;;;5.03;3.25;;;16.10;95.80;;;;;;5000466;28;20037;-67
2023/07/27 12:10:04;;;;;;;5.63;3.25;;;16.30;95.90;;;;;;5007877;28;20037;-67
2023/07/27 12:12:30;;;;;;;4.60;3.35;;;16.20;95.80;;;;;;5008907;28;20022;-67
2023/07/27 12:14:58;;;;;;;5.85;3.38;;;16.40;96.20;;;;;;5007067;28;20030;-67
2023/07/27 12:17:26;;;;;;;6.43;3.78;;;16.70;96.40;;;;;;5008720;28;20022;-68
2023/07/27 12:19:52;;;;;;;5.75;3.40;;;16.60;95.60;;;;;;5010107;28;20124;-68
2023/07/27 12:22:18;;;;;;;6.55;3.22;;;16.60;95.40;;;;;;5021410;28;20447;-67
2023/07/27 12:24:46;;;;;;;6.68;3.20;;;16.40;95.70;;;;;;5010070;28;20445;-67
2023/07/27 12:27:12;;;;;;;5.75;3.30;;;16.50;96.30;;;;;;5009775;28;20038;-68
2023/07/27 12:29:38;;;;;;;5.28;3.22;;;16.50;95.80;;;;;;5009291;28;20041;-69
2023/07/27 12:32:04;;;;;;;4.78;2.92;;;16.40;95.50;;;;;;5012334;28;20415;-67
2023/07/27 12:34:30;;;;;;;5.88;2.97;;;16.30;95.80;;;;;;5011171;28;20018;-67